KSTC/STC METAR and TAF weather

Enter ICAO airport designator
Station Type Date Time Source
KSTC METAR 2018/12/11 19:53 UTC NOAA

KSTC 111953Z 00000KT 10SM CLR M02/M06 A2991 RMK AO2 SLP156 T10221056


Station Type Date Time Source
KSTC Decoded METAR 2018/12/11 19:53 UTC NOAA

ST. CLOUD REGIONAL AIRPORT, MN, United States (KSTC) 45-33N 094-03W
Dec 11, 2018 - 02:53 PM EST / 2018.12.11 1953 UTC
Wind: Calm:0
Visibility: 10 mile(s):0
Sky conditions: clear
Temperature: 28.0 F (-2.2 C)
Dew Point: 21.9 F (-5.6 C)
Relative Humidity: 77%
Pressure (altimeter): 29.91 in. Hg (1012 hPa)
ob: KSTC 111953Z 00000KT 10SM CLR M02/M06 A2991 RMK AO2 SLP156 T10221056
cycle: 20

Station Type Date Time Source
KSTC TAF 2018/12/11 18:45 UTC NOAA

TAF KSTC 111739Z 1118/1218 13003KT P6SM BKN250
FM120400 00000KT P6SM SCT025 OVC080
FM120800 VRB03KT 4SM BR OVC015
FM121200 00000KT 2SM BR BKN005
FM121600 09003KT 6SM BR OVC012


Example: see airport list